createdAt,value
2019-03-30T00:00:58.657Z,95498.75
2019-03-30T00:03:29.546Z,95491.62
2019-03-30T00:06:00.457Z,95492.94
2019-03-30T00:08:31.492Z,95487.19
2019-03-30T00:11:02.339Z,95481.23
2019-03-30T00:13:33.498Z,95478.92
2019-03-30T00:16:04.592Z,95483.61
2019-03-30T00:18:35.460Z,95488.66
2019-03-30T00:21:06.612Z,95477.41
2019-03-30T00:23:37.828Z,95480.86
2019-03-30T00:26:08.866Z,95482.17
2019-03-30T00:28:39.932Z,95491.72
2019-03-30T00:31:10.810Z,95486.05
2019-03-30T00:33:42.128Z,95486.91
2019-03-30T00:36:13.095Z,95479.70
2019-03-30T00:38:43.917Z,95464.93
2019-03-30T00:41:15.058Z,95471.33
2019-03-30T00:43:46.160Z,95462.56
2019-03-30T00:46:17.267Z,95456.73
2019-03-30T00:48:48.361Z,95456.75
2019-03-30T00:51:19.410Z,95454.21
2019-03-30T00:53:50.478Z,95460.81
2019-03-30T00:56:21.442Z,95455.48
2019-03-30T00:58:52.418Z,95460.21
2019-03-30T01:01:23.703Z,95457.73
2019-03-30T01:03:55.625Z,95464.64
2019-03-30T01:06:26.496Z,95462.66
2019-03-30T01:08:57.376Z,95462.22
2019-03-30T01:11:28.668Z,95454.91
2019-03-30T01:13:59.527Z,95453.75
2019-03-30T01:16:30.372Z,95457.70
2019-03-30T01:19:01.554Z,95455.20
2019-03-30T01:21:32.446Z,95451.48
2019-03-30T01:24:03.275Z,95452.53
2019-03-30T01:26:35.670Z,95450.50
2019-03-30T01:29:06.830Z,95456.35
2019-03-30T01:31:38.158Z,95456.98
2019-03-30T01:34:08.974Z,95462.08
2019-03-30T01:36:39.991Z,95461.28
2019-03-30T01:39:11.081Z,95457.98
2019-03-30T01:41:42.571Z,95462.88
2019-03-30T01:44:16.779Z,95459.25
2019-03-30T01:46:48.143Z,95467.26
2019-03-30T01:49:19.078Z,95466.07
2019-03-30T01:51:49.972Z,95471.80
2019-03-30T01:54:21.327Z,95466.45
2019-03-30T01:56:52.558Z,95462.50
2019-03-30T01:59:23.378Z,95470.83
2019-03-30T02:01:54.609Z,95470.50
2019-03-30T02:04:25.426Z,95463.47
2019-03-30T02:06:56.437Z,95472.74
2019-03-30T02:09:27.299Z,95467.67
2019-03-30T02:11:58.340Z,95466.73
2019-03-30T02:14:29.507Z,95465.05
2019-03-30T02:17:00.583Z,95466.45
2019-03-30T02:19:31.616Z,95463.80
2019-03-30T02:22:02.924Z,95466.13
2019-03-30T02:24:34.077Z,95464.38
2019-03-30T02:27:05.250Z,95462.50
2019-03-30T02:29:36.187Z,95461.76
2019-03-30T02:32:08.317Z,95464.72
2019-03-30T02:34:39.164Z,95465.69
2019-03-30T02:37:10.100Z,95467.45
2019-03-30T02:39:40.912Z,95463.47
2019-03-30T02:42:12.036Z,95462.53
2019-03-30T02:44:43.134Z,95465.84
2019-03-30T02:47:14.271Z,95465.95
2019-03-30T02:49:45.256Z,95466.20
2019-03-30T02:52:16.570Z,95467.01
2019-03-30T02:54:47.412Z,95464.04
2019-03-30T02:57:18.526Z,95463.80
2019-03-30T02:59:49.591Z,95461.05
2019-03-30T03:02:20.630Z,95460.33
2019-03-30T03:04:51.490Z,95470.02
2019-03-30T03:07:23.529Z,95466.31
2019-03-30T03:09:54.429Z,95467.56
2019-03-30T03:12:25.542Z,95469.83
2019-03-30T03:14:56.348Z,95470.17
2019-03-30T03:17:27.375Z,95475.64
2019-03-30T03:19:58.291Z,95473.78
2019-03-30T03:22:29.277Z,95475.59
2019-03-30T03:25:00.267Z,95474.98
2019-03-30T03:27:31.725Z,95475.91
2019-03-30T03:30:02.893Z,95472.98
2019-03-30T03:32:33.712Z,95467.56
2019-03-30T03:35:05.055Z,95469.60
2019-03-30T03:37:45.379Z,95467.28
2019-03-30T03:40:10.542Z,95472.70
2019-03-30T03:42:41.466Z,95486.23
2019-03-30T03:45:12.460Z,95468.38
2019-03-30T03:47:43.597Z,95472.12
2019-03-30T03:50:48.504Z,95466.20
2019-03-30T03:53:19.382Z,95471.97
2019-03-30T03:55:50.906Z,95473.49
2019-03-30T03:58:24.921Z,95468.58
2019-03-30T04:00:58.360Z,95473.36
2019-03-30T04:03:32.302Z,95477.21
2019-03-30T04:06:06.109Z,95476.92
2019-03-30T04:08:37.045Z,95473.80
2019-03-30T04:11:10.594Z,95474.45
2019-03-30T04:13:43.750Z,95481.34
2019-03-30T04:16:14.896Z,95487.63
2019-03-30T04:18:48.307Z,95487.52
2019-03-30T04:21:18.872Z,95488.34
2019-03-30T04:23:54.046Z,95486.52
2019-03-30T04:26:22.212Z,95490.47
2019-03-30T04:28:53.305Z,95500.78
2019-03-30T04:31:24.433Z,95499.95
2019-03-30T04:33:55.390Z,95502.59
2019-03-30T04:36:26.627Z,95511.58
2019-03-30T04:38:57.804Z,95508.62
2019-03-30T04:41:28.660Z,95503.19
2019-03-30T04:43:59.782Z,95506.12
2019-03-30T04:46:30.759Z,95341.55
2019-03-30T04:49:02.993Z,95504.29
2019-03-30T04:51:34.107Z,95500.23
2019-03-30T04:54:04.933Z,95503.31
2019-03-30T04:56:36.393Z,95497.11
2019-03-30T04:59:07.607Z,95507.46
2019-03-30T05:01:38.660Z,95510.67
2019-03-30T05:04:09.737Z,95507.77
2019-03-30T05:06:41.258Z,95510.31
2019-03-30T05:09:12.098Z,95510.17
2019-03-30T05:11:44.326Z,95509.67
2019-03-30T05:14:15.450Z,95518.49
2019-03-30T05:16:46.345Z,95520.16
2019-03-30T05:19:17.337Z,95519.22
2019-03-30T05:21:48.427Z,95514.52
2019-03-30T05:24:19.352Z,95523.23
2019-03-30T05:26:50.525Z,95520.80
2019-03-30T05:29:21.526Z,95514.48
2019-03-30T05:31:52.726Z,95508.82
2019-03-30T05:34:23.703Z,95511.36
2019-03-30T05:36:54.535Z,95505.97
2019-03-30T05:39:25.455Z,95504.07
2019-03-30T05:41:56.747Z,95503.64
2019-03-30T05:44:27.803Z,95503.52
2019-03-30T05:46:58.665Z,95501.14
2019-03-30T05:49:29.795Z,95506.05
2019-03-30T05:52:00.998Z,95501.73
2019-03-30T05:54:32.155Z,95500.39
2019-03-30T05:57:03.931Z,95504.87
2019-03-30T05:59:35.003Z,95498.50
2019-03-30T06:02:06.266Z,95496.37
2019-03-30T06:04:37.323Z,95502.18
2019-03-30T06:07:08.163Z,95501.59
2019-03-30T06:09:39.167Z,95501.83
2019-03-30T06:12:10.272Z,95496.31
2019-03-30T06:14:41.544Z,95497.20
2019-03-30T06:17:12.536Z,95490.63
2019-03-30T06:19:43.611Z,95482.91
2019-03-30T06:22:14.603Z,95486.75
2019-03-30T06:24:45.493Z,95484.16
2019-03-30T06:27:18.599Z,95491.80
2019-03-30T06:30:18.445Z,95490.92
2019-03-30T06:32:49.274Z,95484.17
2019-03-30T06:35:20.208Z,95480.20
2019-03-30T06:37:51.471Z,95483.70
2019-03-30T06:40:22.536Z,95489.57
2019-03-30T06:42:54.820Z,95493.02
2019-03-30T06:45:26.022Z,95477.64
2019-03-30T06:47:57.159Z,95480.73
2019-03-30T06:50:28.047Z,95481.73
2019-03-30T06:52:59.252Z,95485.10
2019-03-30T06:55:30.072Z,95490.54
2019-03-30T06:58:01.074Z,95494.86
2019-03-30T07:00:35.499Z,95492.70
2019-03-30T07:03:07.578Z,95484.79
2019-03-30T07:05:42.098Z,95496.34
2019-03-30T07:08:19.634Z,95487.33
2019-03-30T07:10:50.559Z,95481.60
2019-03-30T07:13:22.319Z,95492.78
2019-03-30T07:15:54.892Z,95486.70
2019-03-30T07:18:25.756Z,95493.45
2019-03-30T07:20:56.793Z,95495.56
2019-03-30T07:23:28.002Z,95485.89
2019-03-30T07:25:58.849Z,95491.48
2019-03-30T07:28:30.209Z,95493.49
2019-03-30T07:31:01.250Z,95491.27
2019-03-30T07:33:32.299Z,95483.51
2019-03-30T07:36:03.459Z,95480.90
2019-03-30T07:38:34.885Z,95480.05
2019-03-30T07:41:05.763Z,95469.81
2019-03-30T07:43:37.136Z,95473.50
2019-03-30T07:46:08.165Z,95471.88
2019-03-30T07:48:40.168Z,95474.83
2019-03-30T07:51:11.131Z,95471.80
2019-03-30T07:53:44.833Z,95470.19
2019-03-30T07:56:14.839Z,95476.14
2019-03-30T07:58:45.815Z,95465.14
2019-03-30T08:01:17.019Z,95482.34
2019-03-30T08:03:48.067Z,95468.55
2019-03-30T08:06:18.916Z,95467.15
2019-03-30T08:08:49.873Z,95468.92
2019-03-30T08:11:20.969Z,95471.44
2019-03-30T08:13:51.917Z,95473.31
2019-03-30T08:16:22.753Z,95473.66
2019-03-30T08:18:54.420Z,95466.49
2019-03-30T08:21:25.639Z,95455.12
2019-03-30T08:23:58.870Z,95464.95
2019-03-30T08:26:30.039Z,95470.80
2019-03-30T08:29:01.272Z,95470.00
2019-03-30T08:31:32.091Z,95460.81
2019-03-30T08:34:03.278Z,95464.71
2019-03-30T08:36:34.619Z,95459.19
2019-03-30T08:39:07.231Z,95469.98
2019-03-30T08:41:38.187Z,95460.34
2019-03-30T08:44:09.270Z,95457.92
2019-03-30T08:46:40.084Z,95457.81
2019-03-30T08:49:10.970Z,95451.14
2019-03-30T08:51:41.884Z,95449.66
2019-03-30T08:54:12.808Z,95440.33
2019-03-30T08:56:43.643Z,95452.14
2019-03-30T08:59:15.003Z,95443.58
2019-03-30T09:01:46.083Z,95443.34
2019-03-30T09:04:17.243Z,95446.55
2019-03-30T09:06:48.081Z,95440.09
2019-03-30T09:09:19.007Z,95426.66
2019-03-30T09:11:50.145Z,95423.02
2019-03-30T09:14:21.092Z,95415.31
2019-03-30T09:16:52.883Z,95423.54
2019-03-30T09:19:23.889Z,95424.80
2019-03-30T09:21:54.772Z,95429.81
2019-03-30T09:24:25.669Z,95429.89
2019-03-30T09:26:56.778Z,95427.02
2019-03-30T09:29:27.958Z,95424.72
2019-03-30T09:32:13.263Z,95425.49
2019-03-30T09:34:31.925Z,95422.59
2019-03-30T09:37:02.847Z,95419.80
2019-03-30T09:39:34.092Z,95427.91
2019-03-30T09:42:05.088Z,95423.44
2019-03-30T09:44:35.958Z,95410.33
2019-03-30T09:47:07.059Z,95420.94
2019-03-30T09:49:38.108Z,95414.11
2019-03-30T09:52:08.931Z,95395.25
2019-03-30T09:54:40.197Z,95396.92
2019-03-30T09:57:11.499Z,95415.92
2019-03-30T09:59:42.642Z,95409.08
2019-03-30T10:02:14.708Z,95397.28
2019-03-30T10:04:46.087Z,95396.55
2019-03-30T10:07:16.910Z,95396.14
2019-03-30T10:09:48.120Z,95377.97
2019-03-30T10:12:18.974Z,95383.81
2019-03-30T10:14:50.112Z,95375.88
2019-03-30T10:17:21.043Z,95372.20
2019-03-30T10:20:03.538Z,95363.20
2019-03-30T10:22:24.519Z,95354.20
2019-03-30T10:24:58.460Z,95360.04
2019-03-30T10:27:28.488Z,95351.67
2019-03-30T10:29:59.459Z,95353.02
2019-03-30T10:32:30.659Z,95351.97
2019-03-30T10:35:01.841Z,95346.41
2019-03-30T10:37:32.823Z,95347.91
2019-03-30T10:40:04.178Z,95343.45
2019-03-30T10:42:35.101Z,95331.63
2019-03-30T10:45:06.872Z,95335.75
2019-03-30T10:47:37.783Z,95326.88
2019-03-30T10:50:09.244Z,95331.69
2019-03-30T10:52:40.501Z,95331.92
2019-03-30T10:55:11.372Z,95328.72
2019-03-30T11:00:12.340Z,95327.79
2019-03-30T11:02:43.531Z,95326.52
2019-03-30T11:05:14.724Z,95313.41
2019-03-30T11:07:45.976Z,95321.61
2019-03-30T11:10:17.266Z,95316.42
2019-03-30T11:12:48.224Z,95304.72
2019-03-30T11:15:19.651Z,95293.33
2019-03-30T11:17:50.587Z,95295.17
2019-03-30T11:20:21.890Z,95295.98
2019-03-30T11:22:52.988Z,95290.00
2019-03-30T11:25:23.898Z,95283.44
2019-03-30T11:27:54.952Z,95273.91
2019-03-30T11:30:26.065Z,95274.48
2019-03-30T11:32:56.940Z,95268.02
2019-03-30T11:35:27.954Z,95268.87
2019-03-30T11:37:59.062Z,95257.46
2019-03-30T11:40:29.951Z,95266.99
2019-03-30T11:43:00.889Z,95267.61
2019-03-30T11:45:32.035Z,95256.27
2019-03-30T11:48:03.162Z,95244.81
2019-03-30T11:50:34.124Z,95263.75
2019-03-30T11:53:05.055Z,95254.33
2019-03-30T11:55:36.422Z,95239.15
2019-03-30T11:58:09.441Z,95246.05
2019-03-30T12:00:40.350Z,95255.60
2019-03-30T12:03:11.289Z,95244.96
2019-03-30T12:05:42.498Z,95248.20
2019-03-30T12:08:13.377Z,95246.58
2019-03-30T12:10:44.256Z,95234.50
2019-03-30T12:13:15.546Z,95237.23
2019-03-30T12:15:46.566Z,95229.23
2019-03-30T12:18:18.456Z,95231.93
2019-03-30T12:20:49.321Z,95222.63
2019-03-30T12:23:20.308Z,95215.55
2019-03-30T12:25:51.408Z,95220.02
2019-03-30T12:28:22.298Z,95218.91
2019-03-30T12:30:53.184Z,95208.36
2019-03-30T12:33:24.538Z,95200.47
2019-03-30T12:35:55.586Z,95201.03
2019-03-30T12:38:26.460Z,94959.95
2019-03-30T12:40:57.665Z,95201.16
2019-03-30T12:43:28.739Z,95203.94
2019-03-30T12:45:59.573Z,95196.86
2019-03-30T12:48:30.692Z,95185.88
2019-03-30T12:51:01.727Z,95195.78
2019-03-30T12:53:32.781Z,95194.22
2019-03-30T12:56:03.915Z,95188.18
2019-03-30T12:58:35.156Z,95175.06
2019-03-30T13:01:05.973Z,95168.71
2019-03-30T13:03:37.071Z,95162.81
2019-03-30T13:06:08.212Z,95167.59
2019-03-30T13:08:39.069Z,95167.34
2019-03-30T13:11:09.931Z,95181.76
2019-03-30T13:13:41.115Z,95151.47
2019-03-30T13:16:12.180Z,95158.31
2019-03-30T13:18:43.129Z,95168.84
2019-03-30T13:21:14.374Z,95166.17
2019-03-30T13:23:45.548Z,95161.95
2019-03-30T13:26:16.614Z,95150.70
2019-03-30T13:28:47.594Z,95157.66
2019-03-30T13:31:18.504Z,95154.53
2019-03-30T13:33:49.682Z,95155.08
2019-03-30T13:36:37.194Z,95155.90
2019-03-30T13:39:08.696Z,95149.62
2019-03-30T13:41:39.908Z,95152.70
2019-03-30T13:44:10.818Z,95151.05
2019-03-30T13:46:41.668Z,95148.37
2019-03-30T13:49:12.625Z,95140.61
2019-03-30T13:51:43.629Z,95140.14
2019-03-30T13:54:14.509Z,95135.70
2019-03-30T13:56:45.560Z,95134.92
2019-03-30T13:59:16.405Z,95140.53
2019-03-30T14:01:47.546Z,95138.47
2019-03-30T14:04:18.670Z,95136.00
2019-03-30T14:06:49.509Z,95125.70
2019-03-30T14:09:22.016Z,95126.73
2019-03-30T14:11:53.429Z,95128.81
2019-03-30T14:14:24.286Z,95128.64
2019-03-30T14:16:55.149Z,95121.84
2019-03-30T14:19:26.118Z,95120.77
2019-03-30T14:21:56.965Z,95121.38
2019-03-30T14:24:27.875Z,95121.98
2019-03-30T14:26:58.853Z,95126.54
2019-03-30T14:29:30.131Z,95123.07
2019-03-30T14:32:01.294Z,95123.66
2019-03-30T14:34:32.355Z,94894.39
2019-03-30T14:37:03.370Z,95119.73
2019-03-30T14:39:34.468Z,95114.45
2019-03-30T14:42:05.692Z,95126.25
2019-03-30T14:44:37.511Z,95124.88
2019-03-30T14:47:08.480Z,95131.39
2019-03-30T14:49:39.294Z,95132.42
2019-03-30T14:52:10.156Z,95130.13
2019-03-30T14:54:52.229Z,95132.14
2019-03-30T14:57:14.223Z,95124.36
2019-03-30T14:59:45.373Z,95130.44
2019-03-30T15:02:16.228Z,95129.72
2019-03-30T15:04:47.064Z,95124.59
2019-03-30T15:07:18.232Z,95124.50
2019-03-30T15:09:49.159Z,95124.16
2019-03-30T15:12:20.178Z,95129.47
2019-03-30T15:14:51.331Z,95128.91
2019-03-30T15:17:22.203Z,95128.58
2019-03-30T15:19:53.096Z,95129.90
2019-03-30T15:22:23.983Z,95129.87
2019-03-30T15:24:55.104Z,95127.41
2019-03-30T15:27:26.103Z,95137.72
2019-03-30T15:29:57.199Z,95131.67
2019-03-30T15:32:28.177Z,95136.34
2019-03-30T15:34:59.335Z,95125.92
2019-03-30T15:37:30.935Z,95129.60
2019-03-30T15:40:01.753Z,95130.64
2019-03-30T15:42:32.908Z,95129.88
2019-03-30T15:45:03.859Z,95131.30
2019-03-30T15:47:34.700Z,95131.69
2019-03-30T15:50:06.500Z,95135.44
2019-03-30T15:52:37.795Z,95138.61
2019-03-30T15:55:09.040Z,95146.66
2019-03-30T15:57:40.090Z,95140.64
2019-03-30T16:00:15.368Z,95144.71
2019-03-30T16:02:46.444Z,95140.27
2019-03-30T16:05:17.670Z,95147.45
2019-03-30T16:07:48.641Z,95140.02
2019-03-30T16:10:19.838Z,95144.61
2019-03-30T16:12:50.797Z,95148.54
2019-03-30T16:15:21.617Z,95145.98
2019-03-30T16:17:52.534Z,95147.86
2019-03-30T16:20:23.533Z,95142.78
2019-03-30T16:22:54.400Z,95147.00
2019-03-30T16:25:25.271Z,95149.58
2019-03-30T16:27:57.461Z,95151.98
2019-03-30T16:30:28.545Z,95154.92
2019-03-30T16:32:59.495Z,95160.36
2019-03-30T16:35:30.576Z,95162.92
2019-03-30T16:38:01.663Z,95171.27
2019-03-30T16:40:32.860Z,95163.73
2019-03-30T16:43:03.717Z,95164.00
2019-03-30T16:45:34.561Z,95174.41
2019-03-30T16:48:05.593Z,95175.73
2019-03-30T16:50:36.538Z,95173.81
2019-03-30T16:53:07.488Z,95175.82
2019-03-30T16:55:38.812Z,95179.38
2019-03-30T16:58:10.014Z,95182.42
2019-03-30T17:00:55.777Z,95179.65
2019-03-30T17:03:13.726Z,95180.56
2019-03-30T17:05:44.781Z,95178.48
2019-03-30T17:08:15.866Z,95171.88
2019-03-30T17:10:47.219Z,95176.73
2019-03-30T17:13:18.269Z,95182.42
2019-03-30T17:15:49.097Z,95178.95
2019-03-30T17:18:21.090Z,95174.05
2019-03-30T17:20:52.257Z,95181.56
2019-03-30T17:23:24.281Z,95182.02
2019-03-30T17:25:55.104Z,95192.98
2019-03-30T17:28:26.301Z,95185.44
2019-03-30T17:30:57.236Z,95193.52
2019-03-30T17:33:28.161Z,95191.39
2019-03-30T17:35:59.386Z,95187.83
2019-03-30T17:38:30.497Z,95191.47
2019-03-30T17:41:02.700Z,95196.38
2019-03-30T17:43:33.569Z,95196.88
2019-03-30T17:46:04.397Z,95194.75
2019-03-30T17:48:35.459Z,95204.47
2019-03-30T17:51:06.353Z,95202.81
2019-03-30T17:53:39.401Z,94916.00
2019-03-30T17:56:10.288Z,95205.36
2019-03-30T17:58:41.490Z,95201.09
2019-03-30T18:01:15.593Z,95208.89
2019-03-30T18:03:45.415Z,95215.88
2019-03-30T18:06:16.692Z,95208.48
2019-03-30T18:08:47.557Z,95207.95
2019-03-30T18:11:18.721Z,95203.41
2019-03-30T18:13:49.639Z,95200.13
2019-03-30T18:16:22.420Z,95205.58
2019-03-30T18:18:53.273Z,95207.75
2019-03-30T18:21:24.252Z,95208.51
2019-03-30T18:23:55.358Z,95207.55
2019-03-30T18:26:27.588Z,95206.02
2019-03-30T18:28:58.595Z,95204.50
2019-03-30T18:31:29.930Z,95208.04
2019-03-30T18:34:01.201Z,95200.31
2019-03-30T18:36:33.195Z,95204.34
2019-03-30T18:39:09.962Z,95206.45
2019-03-30T18:41:38.576Z,95210.14
2019-03-30T18:44:09.465Z,95206.73
2019-03-30T18:46:40.358Z,95207.46
2019-03-30T18:49:11.335Z,95208.15
2019-03-30T18:51:44.703Z,95207.46
2019-03-30T18:54:17.071Z,95208.66
2019-03-30T18:56:47.944Z,95217.17
2019-03-30T18:59:18.867Z,95214.66
2019-03-30T19:01:50.023Z,95222.37
2019-03-30T19:04:20.983Z,95222.30
2019-03-30T19:06:51.918Z,95226.29
2019-03-30T19:09:23.288Z,95225.16
2019-03-30T19:11:54.102Z,95222.60
2019-03-30T19:14:24.954Z,95223.13
2019-03-30T19:16:55.850Z,95225.50
2019-03-30T19:19:29.271Z,95222.92
2019-03-30T19:22:01.741Z,95222.41
2019-03-30T19:24:32.588Z,95227.63
2019-03-30T19:27:03.531Z,95224.20
2019-03-30T19:29:34.748Z,95230.52
2019-03-30T19:32:05.573Z,95224.08
2019-03-30T19:34:36.455Z,95230.69
2019-03-30T19:37:07.759Z,95231.92
2019-03-30T19:39:38.740Z,95229.59
2019-03-30T19:42:09.547Z,95236.56
2019-03-30T19:44:40.590Z,95238.91
2019-03-30T19:47:11.526Z,95239.13
2019-03-30T19:49:42.423Z,95244.89
2019-03-30T19:52:13.295Z,95244.06
2019-03-30T19:54:44.228Z,95249.06
2019-03-30T19:57:15.548Z,95244.05
2019-03-30T19:59:46.647Z,95251.70
2019-03-30T20:02:17.523Z,95245.14
2019-03-30T20:04:48.848Z,95244.87
2019-03-30T20:07:20.024Z,95243.69
2019-03-30T20:09:50.956Z,95246.30
2019-03-30T20:12:22.023Z,95249.20
2019-03-30T20:14:53.019Z,95248.64
2019-03-30T20:17:23.824Z,95246.69
2019-03-30T20:19:54.757Z,95241.00
2019-03-30T20:22:25.781Z,95243.70
2019-03-30T20:24:56.957Z,95246.09
2019-03-30T20:27:28.041Z,95242.30
2019-03-30T20:29:59.014Z,95230.61
2019-03-30T20:32:30.136Z,95236.40
2019-03-30T20:35:01.378Z,95227.83
2019-03-30T20:37:32.261Z,95228.73
2019-03-30T20:40:03.214Z,95236.52
2019-03-30T20:42:34.321Z,95229.63
2019-03-30T20:45:06.600Z,95230.23
2019-03-30T20:47:37.455Z,95234.53
2019-03-30T20:50:08.999Z,95230.01
2019-03-30T20:52:39.814Z,95225.52
2019-03-30T20:55:11.077Z,95229.70
2019-03-30T20:57:41.904Z,95221.44
2019-03-30T21:00:13.962Z,95228.41
2019-03-30T21:02:45.241Z,95218.94
2019-03-30T21:05:16.171Z,95227.42
2019-03-30T21:07:47.053Z,95218.22
2019-03-30T21:10:18.140Z,95220.81
2019-03-30T21:12:49.005Z,95214.44
2019-03-30T21:15:19.820Z,95220.23
2019-03-30T21:17:51.083Z,95214.63
2019-03-30T21:20:22.110Z,95211.43
2019-03-30T21:22:53.041Z,95211.62
2019-03-30T21:25:24.311Z,95215.93
2019-03-30T21:27:55.606Z,95211.91
2019-03-30T21:30:26.553Z,95214.59
2019-03-30T21:32:57.812Z,95209.59
2019-03-30T21:35:28.946Z,95212.40
2019-03-30T21:37:59.792Z,95210.32
2019-03-30T21:40:30.774Z,95207.55
2019-03-30T21:43:01.930Z,95207.44
2019-03-30T21:45:32.787Z,95207.71
2019-03-30T21:48:03.765Z,95202.27
2019-03-30T21:50:35.826Z,95208.80
2019-03-30T21:53:06.687Z,95204.95
2019-03-30T21:55:37.583Z,95203.05
2019-03-30T21:58:08.839Z,95204.93
2019-03-30T22:00:41.095Z,95193.98
2019-03-30T22:03:12.259Z,95197.94
2019-03-30T22:05:43.229Z,95200.34
2019-03-30T22:08:17.026Z,95191.31
2019-03-30T22:10:46.955Z,95194.92
2019-03-30T22:13:21.273Z,95190.75
2019-03-30T22:15:50.512Z,95198.02
2019-03-30T22:18:21.687Z,95194.23
2019-03-30T22:20:52.776Z,95192.69
2019-03-30T22:23:23.633Z,95188.22
2019-03-30T22:25:54.824Z,95187.73
2019-03-30T22:28:25.892Z,95193.63
2019-03-30T22:30:56.828Z,95183.36
2019-03-30T22:33:30.793Z,95189.61
2019-03-30T22:36:01.269Z,95193.00
2019-03-30T22:38:32.453Z,95191.30
2019-03-30T22:41:03.366Z,95193.63
2019-03-30T22:43:34.212Z,95183.55
2019-03-30T22:46:07.554Z,95180.06
2019-03-30T22:48:38.119Z,95180.78
2019-03-30T22:51:08.985Z,95180.82
2019-03-30T22:53:40.050Z,95186.97
2019-03-30T22:56:11.381Z,95178.42
2019-03-30T22:58:43.129Z,95183.19
2019-03-30T23:01:16.630Z,95178.27
2019-03-30T23:03:49.180Z,95175.22
2019-03-30T23:06:20.438Z,95172.80
2019-03-30T23:08:51.626Z,95175.11
2019-03-30T23:11:22.497Z,95176.37
2019-03-30T23:13:53.490Z,95171.99
2019-03-30T23:16:24.393Z,95169.41
2019-03-30T23:18:55.252Z,95165.48
2019-03-30T23:21:26.328Z,95164.11
2019-03-30T23:23:58.405Z,95162.77
2019-03-30T23:26:29.458Z,95158.92
2019-03-30T23:29:00.339Z,95158.12
2019-03-30T23:31:31.593Z,95159.47
2019-03-30T23:34:02.638Z,95150.69
2019-03-30T23:36:33.549Z,95153.43
2019-03-30T23:39:06.208Z,95148.29
2019-03-30T23:41:37.099Z,95151.67
2019-03-30T23:44:07.981Z,95139.25
2019-03-30T23:46:39.167Z,95146.45
2019-03-30T23:49:11.311Z,95141.39
2019-03-30T23:51:42.135Z,95137.92
2019-03-30T23:54:16.229Z,95138.83
2019-03-30T23:56:48.396Z,95143.80
2019-03-30T23:59:19.273Z,95135.42
